New York, New York
Traffic Map
Current Weather Conditions
New York, New York
Clear
Clear
15°
Feels Like: 15°
Wind Chill: 15° Ceiling: Unl
Heat Index: 15° Visibility: 10mi
Dew Point: Wind: 3mph
Humidity: 53% Direction: ° ()
Pressure: 30.19in Gusts: 0mph
Raw Report DataKNYC 241551Z AUTO VRB03KT 10SM CLR 15/06 A3019 RMK AO2 SLP215 T01500056 $
Traffic Incident Summary
Active as of:
Severity:
Category:
InformationThere was an issue retrieving the traffic information for this location. Please try a different location or try again shortly.
Advertisements
Track Severe Weather on mobile